Campo, CA

1:56 PM PST on February 10, 2016 (GMT -0800)
MesoWest | | Change Station
CLOSE
Current Station
Personal Weather Station
Location: Campo, CA
Elevation: 2886 ft
Nearby Weather Stations

Elev 2886 ft 32.63 °N, 116.42 °W | Updated 1 hour ago

Clear
Clear
74.0 °F
Feels Like 74.0 °F
N
12.0
Wind Variable Wind from ENE
Gusts 18.0 mph

Today
High -- | Low -- °F
--% Chance of Precip.
Yesterday
High -- | Low -- °F
Precip. -- in
Pressure 30.09 in
Visibility 10.0 miles
Clouds Clear
Dew Point 14.0 °F
Humidity 10%
Rainfall in
Snow Depth Not available.
6:33 AM 5:26 PM
Waxing Crescent, 7% visible
METAR KRNM 102153Z 25003KT 10SM CLR 29/M01 A3012 RMK AO2 SLP187 T02891006
Pressure 30.09 in
Visibility 10.0 miles
Clouds Clear
Dew Point 14.0 °F
Humidity 10%
Rainfall in
Snow Depth Not available.
6:33 AM 5:26 PM
Waxing Crescent, 7% visible
METAR KRNM 102153Z 25003KT 10SM CLR 29/M01 A3012 RMK AO2 SLP187 T02891006

10-Day Weather Forecast

Almanac

Astronomy

Feb. 10, 2016 Rise Set
Actual Time
Civil Twilight
Nautical Twilight
Astronomical Twilight
Moon
Length of Visible Light
Length of Day
Tomorrow will be .
, % of the Moon is Illuminated

Today's Extremes

State Highs State Lows

Community

WunderPhotos

Upload Photos

1,891,951 photos uploaded!

WunderBlog® & News

Nearby

Air Quality

  Air Quality AQ Index Pollutant
Not available.

Snow Depth

Station Depth Elevation

Earthquake Activity

City Distance Mag. Time & Date
Minimum magnitude displayed is 2.5.

Coastal Water Temperatures

Place Temperature

Stations

Nearby Weather Stations

Station Location Temp. Windchill Dew Point Humidity Wind Precip. Elev Updated Type
                   

Watches & Warnings

There are currently no watches in effect.